createdAt,value
2019-02-23T00:02:00.209Z,9.85
2019-02-23T00:04:06.529Z,9.18
2019-02-23T00:06:13.724Z,9.75
2019-02-23T00:08:19.960Z,8.80
2019-02-23T00:10:26.194Z,9.10
2019-02-23T00:12:32.390Z,11.25
2019-02-23T00:14:38.656Z,8.63
2019-02-23T00:16:44.884Z,10.05
2019-02-23T00:18:51.208Z,9.43
2019-02-23T00:20:57.400Z,10.85
2019-02-23T00:23:03.632Z,9.95
2019-02-23T00:25:09.797Z,10.70
2019-02-23T00:27:16.151Z,9.63
2019-02-23T00:29:22.375Z,9.53
2019-02-23T00:31:28.529Z,9.98
2019-02-23T00:33:35.724Z,8.33
2019-02-23T00:35:41.960Z,10.05
2019-02-23T00:37:49.197Z,10.10
2019-02-23T00:39:55.384Z,10.78
2019-02-23T00:42:01.639Z,10.45
2019-02-23T00:44:07.779Z,10.32
2019-02-23T00:46:14.041Z,8.70
2019-02-23T00:48:20.283Z,9.58
2019-02-23T00:50:26.426Z,9.63
2019-02-23T00:52:32.733Z,9.15
2019-02-23T00:54:38.891Z,8.78
2019-02-23T00:56:45.126Z,9.23
2019-02-23T00:58:51.314Z,8.98
2019-02-23T01:00:57.650Z,9.10
2019-02-23T01:03:03.949Z,8.53
2019-02-23T01:05:10.945Z,8.45
2019-02-23T01:07:17.444Z,8.95
2019-02-23T01:09:24.685Z,8.23
2019-02-23T01:11:31.007Z,8.28
2019-02-23T01:13:37.363Z,9.03
2019-02-23T01:15:43.592Z,8.00
2019-02-23T01:17:49.847Z,7.85
2019-02-23T01:19:56.214Z,8.53
2019-02-23T01:22:03.480Z,9.08
2019-02-23T01:24:09.825Z,8.08
2019-02-23T01:26:16.273Z,8.85
2019-02-23T01:28:22.632Z,7.67
2019-02-23T01:30:28.945Z,7.53
2019-02-23T01:32:35.238Z,7.53
2019-02-23T01:34:41.411Z,6.97
2019-02-23T01:36:47.777Z,6.75
2019-02-23T01:38:54.278Z,7.58
2019-02-23T01:41:00.434Z,7.00
2019-02-23T01:43:06.959Z,5.80
2019-02-23T01:45:13.343Z,5.90
2019-02-23T01:47:19.498Z,5.95
2019-02-23T01:49:25.895Z,5.53
2019-02-23T01:51:33.935Z,6.35
2019-02-23T01:53:40.228Z,6.42
2019-02-23T01:55:46.501Z,6.05
2019-02-23T01:57:52.814Z,5.75
2019-02-23T01:59:59.117Z,6.12
2019-02-23T02:02:05.498Z,5.08
2019-02-23T02:04:11.792Z,5.65
2019-02-23T02:06:18.143Z,6.00
2019-02-23T02:08:24.427Z,5.05
2019-02-23T02:10:30.744Z,5.67
2019-02-23T02:12:37.272Z,6.00
2019-02-23T02:14:43.664Z,6.55
2019-02-23T02:16:50.026Z,6.28
2019-02-23T02:18:56.329Z,6.62
2019-02-23T02:21:02.658Z,6.22
2019-02-23T02:23:08.827Z,5.45
2019-02-23T02:25:15.131Z,5.50
2019-02-23T02:27:21.393Z,5.62
2019-02-23T02:29:27.702Z,5.05
2019-02-23T02:31:33.995Z,5.30
2019-02-23T02:34:07.422Z,6.40
2019-02-23T02:36:13.578Z,6.12
2019-02-23T02:38:19.880Z,7.45
2019-02-23T02:40:26.065Z,8.60
2019-02-23T02:42:32.352Z,9.15
2019-02-23T02:44:38.722Z,7.40
2019-02-23T02:46:44.969Z,6.75
2019-02-23T02:48:51.331Z,7.50
2019-02-23T02:50:57.479Z,7.45
2019-02-23T02:53:03.820Z,8.18
2019-02-23T02:55:10.361Z,8.30
2019-02-23T02:57:16.595Z,7.80
2019-02-23T02:59:22.873Z,8.35
2019-02-23T03:01:29.083Z,8.10
2019-02-23T03:03:35.276Z,7.12
2019-02-23T03:05:41.687Z,7.37
2019-02-23T03:07:48.053Z,7.35
2019-02-23T03:09:54.353Z,7.20
2019-02-23T03:12:00.746Z,6.30
2019-02-23T03:14:06.981Z,6.60
2019-02-23T03:16:13.272Z,6.47
2019-02-23T03:18:19.603Z,5.67
2019-02-23T03:20:36.314Z,5.60
2019-02-23T03:22:33.804Z,5.30
2019-02-23T03:24:40.139Z,5.87
2019-02-23T03:26:46.359Z,6.87
2019-02-23T03:28:52.601Z,9.75
2019-02-23T03:30:58.931Z,9.00
2019-02-23T03:33:05.197Z,8.35
2019-02-23T03:35:11.550Z,6.62
2019-02-23T03:37:18.534Z,5.65
2019-02-23T03:39:24.754Z,5.97
2019-02-23T03:41:30.976Z,6.45
2019-02-23T03:43:37.144Z,6.85
2019-02-23T03:45:43.439Z,7.72
2019-02-23T03:47:49.732Z,7.78
2019-02-23T03:49:55.982Z,8.63
2019-02-23T03:52:02.286Z,8.93
2019-02-23T03:54:08.580Z,8.40
2019-02-23T03:56:14.831Z,7.85
2019-02-23T03:58:21.056Z,6.40
2019-02-23T04:00:28.211Z,6.03
2019-02-23T04:02:34.401Z,6.92
2019-02-23T04:04:40.865Z,7.72
2019-02-23T04:06:48.263Z,7.40
2019-02-23T04:08:54.661Z,7.53
2019-02-23T04:11:01.137Z,7.50
2019-02-23T04:13:07.450Z,6.22
2019-02-23T04:15:13.938Z,6.97
2019-02-23T04:17:20.481Z,7.22
2019-02-23T04:19:26.717Z,8.23
2019-02-23T04:21:33.034Z,8.55
2019-02-23T04:23:39.271Z,6.92
2019-02-23T04:25:47.241Z,6.42
2019-02-23T04:27:53.497Z,5.72
2019-02-23T04:29:59.797Z,6.83
2019-02-23T04:32:06.095Z,5.17
2019-02-23T04:34:12.345Z,5.85
2019-02-23T04:36:18.711Z,6.17
2019-02-23T04:38:25.801Z,6.15
2019-02-23T04:40:32.116Z,6.25
2019-02-23T04:42:38.416Z,6.30
2019-02-23T04:44:44.780Z,7.00
2019-02-23T04:46:51.196Z,5.30
2019-02-23T04:48:57.577Z,6.72
2019-02-23T04:51:13.775Z,5.83
2019-02-23T04:53:11.969Z,7.28
2019-02-23T04:55:18.332Z,8.08
2019-02-23T04:57:24.629Z,6.95
2019-02-23T04:59:31.011Z,7.45
2019-02-23T05:01:37.175Z,7.83
2019-02-23T05:03:43.538Z,9.58
2019-02-23T05:05:49.936Z,10.03
2019-02-23T05:07:56.313Z,9.40
2019-02-23T05:10:02.535Z,7.28
2019-02-23T05:12:09.921Z,6.35
2019-02-23T05:14:16.217Z,7.25
2019-02-23T05:16:22.656Z,7.95
2019-02-23T05:18:28.975Z,9.18
2019-02-23T05:20:35.305Z,9.18
2019-02-23T05:22:41.678Z,8.95
2019-02-23T05:24:47.930Z,10.30
2019-02-23T05:26:54.196Z,8.90
2019-02-23T05:29:00.441Z,9.95
2019-02-23T05:31:06.615Z,8.85
2019-02-23T05:33:12.862Z,10.25
2019-02-23T05:35:19.096Z,14.60
2019-02-23T05:37:25.290Z,16.57
2019-02-23T05:39:31.452Z,13.20
2019-02-23T05:41:37.634Z,12.47
2019-02-23T05:43:43.817Z,9.50
2019-02-23T05:45:49.972Z,14.07
2019-02-23T05:47:56.215Z,7.75
2019-02-23T05:50:02.559Z,7.75
2019-02-23T05:52:08.711Z,6.45
2019-02-23T05:54:15.062Z,13.18
2019-02-23T05:56:21.306Z,15.68
2019-02-23T05:58:27.543Z,18.95
2019-02-23T06:00:33.857Z,13.53
2019-02-23T06:02:40.042Z,20.75
2019-02-23T06:04:46.207Z,18.50
2019-02-23T06:06:52.515Z,20.25
2019-02-23T06:08:58.707Z,19.77
2019-02-23T06:11:04.945Z,19.85
2019-02-23T06:13:12.238Z,22.10
2019-02-23T06:15:18.424Z,27.32
2019-02-23T06:17:24.601Z,27.95
2019-02-23T06:19:30.826Z,25.25
2019-02-23T06:21:37.025Z,21.48
2019-02-23T06:23:43.190Z,21.52
2019-02-23T06:25:49.393Z,19.80
2019-02-23T06:27:56.764Z,15.30
2019-02-23T06:30:03.002Z,15.95
2019-02-23T06:32:09.228Z,13.35
2019-02-23T06:34:16.661Z,12.63
2019-02-23T06:36:23.061Z,11.25
2019-02-23T06:38:29.242Z,10.72
2019-02-23T06:40:35.566Z,10.18
2019-02-23T06:42:41.797Z,13.32
2019-02-23T06:44:48.016Z,14.98
2019-02-23T06:46:54.273Z,14.47
2019-02-23T06:49:00.439Z,14.87
2019-02-23T06:51:06.615Z,12.35
2019-02-23T06:53:12.806Z,12.40
2019-02-23T06:55:18.965Z,12.78
2019-02-23T06:57:25.390Z,11.05
2019-02-23T06:59:31.712Z,12.70
2019-02-23T07:01:37.877Z,10.03
2019-02-23T07:03:44.050Z,13.05
2019-02-23T07:05:50.316Z,11.03
2019-02-23T07:07:56.558Z,12.05
2019-02-23T07:10:02.788Z,15.08
2019-02-23T07:12:08.971Z,10.08
2019-02-23T07:14:15.265Z,8.43
2019-02-23T07:16:21.559Z,9.25
2019-02-23T07:18:27.916Z,12.05
2019-02-23T07:20:43.690Z,12.78
2019-02-23T07:22:42.034Z,10.03
2019-02-23T07:24:48.231Z,8.60
2019-02-23T07:26:54.462Z,8.30
2019-02-23T07:29:00.619Z,9.03
2019-02-23T07:31:06.805Z,11.83
2019-02-23T07:33:13.037Z,11.65
2019-02-23T07:35:19.340Z,8.28
2019-02-23T07:37:25.525Z,8.18
2019-02-23T07:39:31.698Z,7.00
2019-02-23T07:41:37.859Z,6.83
2019-02-23T07:43:44.201Z,7.87
2019-02-23T07:45:50.352Z,8.90
2019-02-23T07:47:56.522Z,14.00
2019-02-23T07:50:02.705Z,12.93
2019-02-23T07:52:09.177Z,9.35
2019-02-23T07:54:15.335Z,12.55
2019-02-23T07:56:21.688Z,22.75
2019-02-23T07:58:27.915Z,11.10
2019-02-23T08:00:34.241Z,8.20
2019-02-23T08:02:40.507Z,8.38
2019-02-23T08:04:46.663Z,18.95
2019-02-23T08:06:52.908Z,23.15
2019-02-23T08:08:59.108Z,19.40
2019-02-23T08:11:05.317Z,20.70
2019-02-23T08:13:11.487Z,15.50
2019-02-23T08:15:17.883Z,14.33
2019-02-23T08:17:24.050Z,13.62
2019-02-23T08:19:30.228Z,11.22
2019-02-23T08:21:36.416Z,9.48
2019-02-23T08:23:42.637Z,9.98
2019-02-23T08:25:48.863Z,10.55
2019-02-23T08:27:55.062Z,11.43
2019-02-23T08:30:01.296Z,11.22
2019-02-23T08:32:07.858Z,9.78
2019-02-23T08:34:14.205Z,8.83
2019-02-23T08:36:20.506Z,8.95
2019-02-23T08:38:26.843Z,9.40
2019-02-23T08:40:33.165Z,9.05
2019-02-23T08:42:39.402Z,14.78
2019-02-23T08:44:45.555Z,11.85
2019-02-23T08:46:51.744Z,7.90
2019-02-23T08:48:57.982Z,7.95
2019-02-23T08:51:04.193Z,7.62
2019-02-23T08:53:10.446Z,7.55
2019-02-23T08:55:16.674Z,6.87
2019-02-23T08:57:23.026Z,9.85
2019-02-23T08:59:29.283Z,11.95
2019-02-23T09:01:36.200Z,15.63
2019-02-23T09:03:42.362Z,10.10
2019-02-23T09:05:48.550Z,10.28
2019-02-23T09:07:54.770Z,6.10
2019-02-23T09:10:00.942Z,6.47
2019-02-23T09:12:07.131Z,5.78
2019-02-23T09:14:13.365Z,4.78
2019-02-23T09:16:19.611Z,4.70
2019-02-23T09:18:26.101Z,4.80
2019-02-23T09:20:32.316Z,5.17
2019-02-23T09:22:38.610Z,6.75
2019-02-23T09:24:44.980Z,5.30
2019-02-23T09:26:51.376Z,4.78
2019-02-23T09:28:57.594Z,3.83
2019-02-23T09:31:03.784Z,4.22
2019-02-23T09:33:09.998Z,4.75
2019-02-23T09:35:17.289Z,6.87
2019-02-23T09:37:23.481Z,5.58
2019-02-23T09:39:29.694Z,5.10
2019-02-23T09:41:35.913Z,4.65
2019-02-23T09:43:42.091Z,4.33
2019-02-23T09:45:48.386Z,4.85
2019-02-23T09:47:54.620Z,4.20
2019-02-23T09:50:00.923Z,4.83
2019-02-23T09:52:07.210Z,4.05
2019-02-23T09:54:13.447Z,4.65
2019-02-23T09:56:19.689Z,5.03
2019-02-23T09:58:25.919Z,4.47
2019-02-23T10:00:32.139Z,4.80
2019-02-23T10:02:38.319Z,4.58
2019-02-23T10:04:44.549Z,4.30
2019-02-23T10:06:50.778Z,4.05
2019-02-23T10:08:56.955Z,5.42
2019-02-23T10:11:03.112Z,4.40
2019-02-23T10:13:09.406Z,4.85
2019-02-23T10:15:15.648Z,5.05
2019-02-23T10:17:22.043Z,6.67
2019-02-23T10:19:28.282Z,7.45
2019-02-23T10:21:34.525Z,7.00
2019-02-23T10:23:40.812Z,7.65
2019-02-23T10:25:46.970Z,6.47
2019-02-23T10:27:53.289Z,6.67
2019-02-23T10:29:59.515Z,7.83
2019-02-23T10:32:05.736Z,7.08
2019-02-23T10:34:12.142Z,7.42
2019-02-23T10:36:18.285Z,7.97
2019-02-23T10:38:24.646Z,7.65
2019-02-23T10:40:30.832Z,7.10
2019-02-23T10:42:36.990Z,7.30
2019-02-23T10:44:43.214Z,6.12
2019-02-23T10:46:49.403Z,6.55
2019-02-23T10:48:55.630Z,7.22
2019-02-23T10:51:01.857Z,6.97
2019-02-23T10:53:08.222Z,7.50
2019-02-23T10:55:15.630Z,6.20
2019-02-23T10:57:21.909Z,5.35
2019-02-23T10:59:28.159Z,5.60
2019-02-23T11:01:34.314Z,6.30
2019-02-23T11:03:40.530Z,5.85
2019-02-23T11:05:46.805Z,6.08
2019-02-23T11:07:53.029Z,6.03
2019-02-23T11:09:59.391Z,6.20
2019-02-23T11:12:05.735Z,6.08
2019-02-23T11:14:12.172Z,5.92
2019-02-23T11:16:18.323Z,4.53
2019-02-23T11:18:24.636Z,5.08
2019-02-23T11:20:31.499Z,4.37
2019-02-23T11:22:37.712Z,4.50
2019-02-23T11:24:43.955Z,4.60
2019-02-23T11:26:50.242Z,4.47
2019-02-23T11:28:56.392Z,4.83
2019-02-23T11:31:02.643Z,4.92
2019-02-23T11:33:08.864Z,4.37
2019-02-23T11:35:17.572Z,4.55
2019-02-23T11:39:29.469Z,5.12
2019-02-23T11:41:35.894Z,5.65
2019-02-23T11:43:42.203Z,5.58
2019-02-23T11:45:49.175Z,5.53
2019-02-23T11:47:55.584Z,5.53
2019-02-23T11:50:01.942Z,5.70
2019-02-23T11:52:09.414Z,5.60
2019-02-23T11:54:15.628Z,5.50
2019-02-23T11:56:22.648Z,5.03
2019-02-23T11:58:28.968Z,5.58
2019-02-23T12:00:35.108Z,6.10
2019-02-23T12:02:51.727Z,4.85
2019-02-23T12:04:51.045Z,5.10
2019-02-23T12:06:57.279Z,5.50
2019-02-23T12:09:03.723Z,5.05
2019-02-23T12:11:11.476Z,5.00
2019-02-23T12:13:17.779Z,5.45
2019-02-23T12:15:24.235Z,4.33
2019-02-23T12:17:30.536Z,4.45
2019-02-23T12:19:36.835Z,5.33
2019-02-23T12:21:43.247Z,3.72
2019-02-23T12:23:49.456Z,4.50
2019-02-23T12:25:55.772Z,4.00
2019-02-23T12:28:02.050Z,4.70
2019-02-23T12:30:11.017Z,3.92
2019-02-23T12:32:17.295Z,4.28
2019-02-23T12:34:23.532Z,4.12
2019-02-23T12:36:29.756Z,3.85
2019-02-23T12:38:36.004Z,5.22
2019-02-23T12:40:42.234Z,4.30
2019-02-23T12:42:48.544Z,4.10
2019-02-23T12:44:54.739Z,3.72
2019-02-23T12:47:00.986Z,4.95
2019-02-23T12:49:07.275Z,5.05
2019-02-23T12:51:13.720Z,4.70
2019-02-23T12:53:19.979Z,5.20
2019-02-23T12:55:26.213Z,5.53
2019-02-23T12:57:33.740Z,5.28
2019-02-23T12:59:39.987Z,4.87
2019-02-23T13:01:46.291Z,5.92
2019-02-23T13:03:52.574Z,6.45
2019-02-23T13:05:58.806Z,5.55
2019-02-23T13:08:05.081Z,5.55
2019-02-23T13:10:13.134Z,5.83
2019-02-23T13:12:27.080Z,6.15
2019-02-23T13:14:55.718Z,5.55
2019-02-23T13:17:30.999Z,6.42
2019-02-23T13:20:13.224Z,6.87
2019-02-23T13:22:27.455Z,7.60
2019-02-23T13:24:50.429Z,6.75
2019-02-23T13:27:16.439Z,6.70
2019-02-23T13:29:56.589Z,6.60
2019-02-23T13:32:25.366Z,6.75
2019-02-23T13:35:08.375Z,6.33
2019-02-23T13:37:42.271Z,6.35
2019-02-23T13:40:01.856Z,6.45
2019-02-23T13:42:34.622Z,5.67
2019-02-23T13:45:20.185Z,5.58
2019-02-23T13:47:33.997Z,5.12
2019-02-23T13:50:14.884Z,5.08
2019-02-23T13:52:31.466Z,4.50
2019-02-23T13:55:08.026Z,4.65
2019-02-23T13:57:35.907Z,4.70
2019-02-23T14:02:30.985Z,4.10
2019-02-23T14:04:54.073Z,4.12
2019-02-23T14:07:17.251Z,4.60
2019-02-23T14:09:56.616Z,5.35
2019-02-23T14:12:18.073Z,5.05
2019-02-23T14:14:29.176Z,4.22
2019-02-23T14:16:48.830Z,5.28
2019-02-23T14:19:13.210Z,5.42
2019-02-23T14:21:33.244Z,5.95
2019-02-23T14:23:51.022Z,6.12
2019-02-23T14:26:27.767Z,5.50
2019-02-23T14:28:55.025Z,4.37
2019-02-23T14:31:32.699Z,6.20
2019-02-23T14:34:04.982Z,5.87
2019-02-23T14:36:21.567Z,5.40
2019-02-23T14:38:53.499Z,5.22
2019-02-23T14:41:27.151Z,5.42
2019-02-23T14:44:03.539Z,4.85
2019-02-23T14:46:41.671Z,5.08
2019-02-23T14:49:16.354Z,4.87
2019-02-23T14:51:51.907Z,5.78
2019-02-23T14:54:20.794Z,5.33
2019-02-23T14:56:46.652Z,5.40
2019-02-23T14:59:29.162Z,5.80
2019-02-23T15:01:45.851Z,6.15
2019-02-23T15:04:11.925Z,5.92
2019-02-23T15:06:52.782Z,5.72
2019-02-23T15:09:18.853Z,6.08
2019-02-23T15:11:41.320Z,5.30
2019-02-23T15:14:26.559Z,5.40
2019-02-23T15:16:50.571Z,4.50
2019-02-23T15:19:46.121Z,5.15
2019-02-23T15:21:59.937Z,4.67
2019-02-23T15:24:50.400Z,5.28
2019-02-23T15:27:25.177Z,5.47
2019-02-23T15:30:03.175Z,6.28
2019-02-23T15:32:47.444Z,7.00
2019-02-23T15:35:20.763Z,7.12
2019-02-23T15:37:54.133Z,6.65
2019-02-23T15:40:26.259Z,6.58
2019-02-23T15:42:58.433Z,7.05
2019-02-23T15:45:24.253Z,7.30
2019-02-23T15:48:09.634Z,7.97
2019-02-23T15:50:15.998Z,8.18
2019-02-23T15:52:22.525Z,7.90
2019-02-23T15:54:29.325Z,8.20
2019-02-23T15:56:35.666Z,8.43
2019-02-23T15:58:41.979Z,8.43
2019-02-23T16:00:48.368Z,7.40
2019-02-23T16:02:54.600Z,7.92
2019-02-23T16:05:00.896Z,8.28
2019-02-23T16:07:07.402Z,8.00
2019-02-23T16:09:13.645Z,7.30
2019-02-23T16:11:19.872Z,8.25
2019-02-23T16:13:26.182Z,8.78
2019-02-23T16:15:33.345Z,7.80
2019-02-23T16:17:39.626Z,8.05
2019-02-23T16:19:46.044Z,7.47
2019-02-23T16:21:53.070Z,8.50
2019-02-23T16:23:59.430Z,9.28
2019-02-23T16:26:05.691Z,9.38
2019-02-23T16:28:11.983Z,9.18
2019-02-23T16:30:20.151Z,9.23
2019-02-23T16:32:26.407Z,9.33
2019-02-23T16:34:32.632Z,9.68
2019-02-23T16:36:39.015Z,10.43
2019-02-23T16:38:45.352Z,10.10
2019-02-23T16:40:52.115Z,10.05
2019-02-23T16:42:58.447Z,8.80
2019-02-23T16:45:07.591Z,10.30
2019-02-23T16:47:15.350Z,9.68
2019-02-23T16:49:21.581Z,10.53
2019-02-23T16:51:29.406Z,11.90
2019-02-23T16:53:37.166Z,13.88
2019-02-23T16:55:50.987Z,13.98
2019-02-23T16:57:51.507Z,14.07
2019-02-23T16:59:57.722Z,13.95
2019-02-23T17:02:04.150Z,12.85
2019-02-23T17:04:10.619Z,11.63
2019-02-23T17:06:16.842Z,11.97
2019-02-23T17:08:23.075Z,11.55
2019-02-23T17:10:29.407Z,15.68
2019-02-23T17:12:35.644Z,16.50
2019-02-23T17:14:41.829Z,16.62
2019-02-23T17:16:48.071Z,18.20
2019-02-23T17:18:54.466Z,18.42
2019-02-23T17:21:00.917Z,16.52
2019-02-23T17:23:07.334Z,15.68
2019-02-23T17:25:14.261Z,16.65
2019-02-23T17:27:21.925Z,15.05
2019-02-23T17:29:28.410Z,13.10
2019-02-23T17:31:35.961Z,13.70
2019-02-23T17:33:42.217Z,14.13
2019-02-23T17:35:49.373Z,13.35
2019-02-23T17:37:55.546Z,12.28
2019-02-23T17:40:01.807Z,12.45
2019-02-23T17:42:10.821Z,12.28
2019-02-23T17:44:17.238Z,11.95
2019-02-23T17:46:23.544Z,11.38
2019-02-23T17:50:37.882Z,12.47
2019-02-23T17:52:44.871Z,12.58
2019-02-23T17:54:51.201Z,13.38
2019-02-23T17:56:57.439Z,12.45
2019-02-23T17:59:05.468Z,11.78
2019-02-23T18:01:11.863Z,11.70
2019-02-23T18:03:18.329Z,12.15
2019-02-23T18:05:24.635Z,10.93
2019-02-23T18:07:30.890Z,14.13
2019-02-23T18:09:37.206Z,13.35
2019-02-23T18:11:43.442Z,13.10
2019-02-23T18:13:49.707Z,12.98
2019-02-23T18:15:56.076Z,16.85
2019-02-23T18:18:02.233Z,15.13
2019-02-23T18:20:12.320Z,16.77
2019-02-23T18:22:18.745Z,14.95
2019-02-23T18:24:25.049Z,14.03
2019-02-23T18:26:33.016Z,13.62
2019-02-23T18:28:39.235Z,11.35
2019-02-23T18:30:45.547Z,10.40
2019-02-23T18:32:52.387Z,11.63
2019-02-23T18:35:01.356Z,10.43
2019-02-23T18:37:07.931Z,10.60
2019-02-23T18:39:14.326Z,10.53
2019-02-23T18:41:21.124Z,11.08
2019-02-23T18:43:28.520Z,10.85
2019-02-23T18:45:34.784Z,12.85
2019-02-23T18:47:41.310Z,11.50
2019-02-23T18:49:47.628Z,13.60
2019-02-23T18:51:53.968Z,14.23
2019-02-23T18:54:00.310Z,14.98
2019-02-23T18:56:07.293Z,14.50
2019-02-23T18:58:13.549Z,12.78
2019-02-23T19:00:24.368Z,12.58
2019-02-23T19:02:27.847Z,13.62
2019-02-23T19:04:37.420Z,13.30
2019-02-23T19:06:45.351Z,13.62
2019-02-23T19:08:51.725Z,14.80
2019-02-23T19:10:59.854Z,14.13
2019-02-23T19:13:08.541Z,13.95
2019-02-23T19:15:15.141Z,14.63
2019-02-23T19:17:23.028Z,17.00
2019-02-23T19:19:32.471Z,16.02
2019-02-23T19:21:38.756Z,17.35
2019-02-23T19:23:45.210Z,20.68
2019-02-23T19:25:53.102Z,18.82
2019-02-23T19:27:59.581Z,14.47
2019-02-23T19:30:14.848Z,13.75
2019-02-23T19:32:21.527Z,12.70
2019-02-23T19:34:29.114Z,17.60
2019-02-23T19:36:35.373Z,16.97
2019-02-23T19:38:42.662Z,21.33
2019-02-23T19:40:48.889Z,17.70
2019-02-23T19:42:57.070Z,15.30
2019-02-23T19:45:03.434Z,16.03
2019-02-23T19:47:11.902Z,16.85
2019-02-23T19:49:18.166Z,16.00
2019-02-23T19:51:24.471Z,15.60
2019-02-23T19:53:30.704Z,16.42
2019-02-23T19:55:37.040Z,15.78
2019-02-23T19:57:43.273Z,16.05
2019-02-23T19:59:51.266Z,15.10
2019-02-23T20:01:58.030Z,14.15
2019-02-23T20:04:06.211Z,12.78
2019-02-23T20:06:14.715Z,13.95
2019-02-23T20:08:21.108Z,12.15
2019-02-23T20:10:27.411Z,11.08
2019-02-23T20:12:33.578Z,12.28
2019-02-23T20:14:41.415Z,12.07
2019-02-23T20:16:47.647Z,11.88
2019-02-23T20:18:53.868Z,10.88
2019-02-23T20:21:01.409Z,12.07
2019-02-23T20:23:07.789Z,11.88
2019-02-23T20:25:15.050Z,11.28
2019-02-23T20:27:23.186Z,12.23
2019-02-23T20:29:30.596Z,13.95
2019-02-23T20:31:38.467Z,13.22
2019-02-23T20:33:46.285Z,13.75
2019-02-23T20:35:53.616Z,13.40
2019-02-23T20:38:01.590Z,14.07
2019-02-23T20:40:09.717Z,14.95
2019-02-23T20:42:18.560Z,14.43
2019-02-23T20:44:25.043Z,15.55
2019-02-23T20:46:31.303Z,14.33
2019-02-23T20:48:38.888Z,13.22
2019-02-23T20:50:46.945Z,13.32
2019-02-23T20:55:01.342Z,12.43
2019-02-23T20:57:14.042Z,12.93
2019-02-23T20:59:23.087Z,13.05
2019-02-23T21:01:32.554Z,13.65
2019-02-23T21:03:39.023Z,12.88
2019-02-23T21:05:46.575Z,13.65
2019-02-23T21:07:52.813Z,13.45
2019-02-23T21:10:00.791Z,14.13
2019-02-23T21:12:08.785Z,13.58
2019-02-23T21:14:16.645Z,12.65
2019-02-23T21:16:24.619Z,13.13
2019-02-23T21:18:31.645Z,13.10
2019-02-23T21:20:42.351Z,12.13
2019-02-23T21:22:51.875Z,12.63
2019-02-23T21:24:58.209Z,12.73
2019-02-23T21:27:12.688Z,12.60
2019-02-23T21:29:14.720Z,12.03
2019-02-23T21:31:20.993Z,12.63
2019-02-23T21:33:27.359Z,12.93
2019-02-23T21:35:33.738Z,16.62
2019-02-23T21:37:40.114Z,12.07
2019-02-23T21:39:46.421Z,13.20
2019-02-23T21:41:52.815Z,12.78
2019-02-23T21:43:59.236Z,13.70
2019-02-23T21:46:05.631Z,12.33
2019-02-23T21:48:13.166Z,13.20
2019-02-23T21:50:21.075Z,14.53
2019-02-23T21:52:28.914Z,13.35
2019-02-23T21:54:36.421Z,13.38
2019-02-23T21:56:42.740Z,14.60
2019-02-23T21:58:49.866Z,12.80
2019-02-23T22:00:56.106Z,13.80
2019-02-23T22:03:04.185Z,14.40
2019-02-23T22:05:12.814Z,14.00
2019-02-23T22:07:19.327Z,13.40
2019-02-23T22:09:25.612Z,13.75
2019-02-23T22:11:31.906Z,14.60
2019-02-23T22:13:39.080Z,12.60
2019-02-23T22:15:45.294Z,14.03
2019-02-23T22:17:51.588Z,14.05
2019-02-23T22:19:57.841Z,13.13
2019-02-23T22:22:04.141Z,13.25
2019-02-23T22:24:11.844Z,13.60
2019-02-23T22:26:18.000Z,13.62
2019-02-23T22:28:24.260Z,14.20
2019-02-23T22:30:30.488Z,14.65
2019-02-23T22:32:36.926Z,14.43
2019-02-23T22:34:43.217Z,13.83
2019-02-23T22:36:51.013Z,14.23
2019-02-23T22:38:57.188Z,12.98
2019-02-23T22:41:03.530Z,13.43
2019-02-23T22:43:09.825Z,13.35
2019-02-23T22:45:16.001Z,14.60
2019-02-23T22:47:22.418Z,14.35
2019-02-23T22:49:28.583Z,20.37
2019-02-23T22:51:36.628Z,14.80
2019-02-23T22:53:42.814Z,14.38
2019-02-23T22:55:49.136Z,14.25
2019-02-23T22:57:55.384Z,13.35
2019-02-23T23:00:01.826Z,13.90
2019-02-23T23:02:09.927Z,13.53
2019-02-23T23:04:17.923Z,12.20
2019-02-23T23:06:24.202Z,13.78
2019-02-23T23:08:30.340Z,14.03
2019-02-23T23:10:36.503Z,14.10
2019-02-23T23:12:42.780Z,13.53
2019-02-23T23:14:49.076Z,12.78
2019-02-23T23:16:55.278Z,12.68
2019-02-23T23:19:01.460Z,12.68
2019-02-23T23:21:07.687Z,12.75
2019-02-23T23:23:13.856Z,14.28
2019-02-23T23:25:20.117Z,13.55
2019-02-23T23:27:26.344Z,12.90
2019-02-23T23:29:32.527Z,12.40
2019-02-23T23:31:38.847Z,12.33
2019-02-23T23:33:45.165Z,13.40
2019-02-23T23:35:51.472Z,11.70
2019-02-23T23:38:00.108Z,13.28
2019-02-23T23:40:07.480Z,11.83
2019-02-23T23:42:13.786Z,11.83
2019-02-23T23:44:20.116Z,12.30
2019-02-23T23:46:26.496Z,13.75
2019-02-23T23:48:32.654Z,12.13
2019-02-23T23:50:38.869Z,13.20
2019-02-23T23:52:45.110Z,11.85
2019-02-23T23:54:51.334Z,11.80
2019-02-23T23:56:57.639Z,11.78
2019-02-23T23:59:03.876Z,13.68
